Time;durP1;ratioP1;P1;durP2;ratioP2;P2;SDS_P1;SDS_P2;PMS_P1;PMS_P2;Temp;Humidity;BMP_temperature;BMP_pressure;BME280_temperature;BME280_humidity;BME280_pressure;Samples;Min_cycle;Max_cycle;Signal;HPM_P1;HPM_P2
2021/10/29 00:01:15;;;;;;;26.30;19.08;;;;;;;8.43;84.57;100306.81;5053891;28;20444;-79
2021/10/29 00:03:42;;;;;;;29.10;18.80;;;;;;;8.42;84.60;100302.53;5053494;28;20080;-79
2021/10/29 00:06:09;;;;;;;25.50;19.25;;;;;;;8.41;84.05;100312.03;5054349;28;20041;-79
2021/10/29 00:08:36;;;;;;;31.50;19.90;;;;;;;8.42;84.29;100310.31;5053512;28;20045;-80
2021/10/29 00:11:03;;;;;;;39.88;21.95;;;;;;;8.28;84.68;100311.66;5054026;28;20380;-79
2021/10/29 00:13:30;;;;;;;37.92;22.02;;;;;;;8.13;85.49;100304.47;5053604;28;20044;-78
2021/10/29 00:15:57;;;;;;;32.38;20.17;;;;;;;8.10;86.03;100309.81;5053433;28;20044;-80
2021/10/29 00:18:24;;;;;;;28.90;18.65;;;;;;;8.27;85.92;100312.56;5053647;28;20077;-78
2021/10/29 00:20:55;;;;;;;25.00;18.70;;;;;;;8.20;86.00;100312.84;5053442;28;20092;-79
2021/10/29 00:23:25;;;;;;;27.83;18.70;;;;;;;7.84;87.38;100303.84;5056042;28;20040;-78
2021/10/29 00:25:52;;;;;;;24.50;16.98;;;;;;;7.88;87.44;100302.84;5059557;28;20125;-78
2021/10/29 00:28:19;;;;;;;24.90;18.05;;;;;;;7.74;87.68;100299.91;5070807;28;20083;-79
2021/10/29 00:30:45;;;;;;;23.08;17.58;;;;;;;7.85;87.21;100299.50;5072371;28;20486;-79
2021/10/29 00:33:15;;;;;;;36.25;19.25;;;;;;;7.82;87.07;100303.03;5059152;28;20562;-77
2021/10/29 00:35:43;;;;;;;27.00;17.35;;;;;;;8.00;86.41;100300.69;5071059;28;20423;-77
2021/10/29 00:38:10;;;;;;;23.25;16.27;;;;;;;7.94;86.67;100293.13;5072859;28;20033;-77
2021/10/29 00:40:42;;;;;;;26.90;18.55;;;;;;;8.14;86.22;100299.22;5072595;28;20040;-77
2021/10/29 00:43:10;;;;;;;21.42;16.40;;;;;;;8.09;86.27;100295.09;5072396;28;20036;-76
2021/10/29 00:45:38;;;;;;;21.90;15.77;;;;;;;8.13;85.85;100301.88;5072518;28;20548;-78
2021/10/29 00:48:06;;;;;;;20.33;15.20;;;;;;;8.02;87.05;100304.03;5071822;28;20375;-79
2021/10/29 00:50:33;;;;;;;24.85;15.65;;;;;;;8.06;87.22;100297.84;5067916;28;20037;-78
2021/10/29 00:53:00;;;;;;;24.42;16.15;;;;;;;8.06;86.61;100293.50;5066604;28;20090;-79
2021/10/29 00:55:27;;;;;;;24.52;16.48;;;;;;;8.11;86.47;100290.72;5072400;28;20040;-78
2021/10/29 00:57:53;;;;;;;19.52;16.33;;;;;;;8.03;87.02;100291.00;5071616;28;20041;-78
2021/10/29 01:00:21;;;;;;;24.20;16.55;;;;;;;8.03;86.99;100285.81;5067355;28;20045;-79
2021/10/29 01:02:47;;;;;;;23.63;16.25;;;;;;;8.10;86.84;100296.81;5062909;28;20044;-78
2021/10/29 01:05:15;;;;;;;25.60;17.75;;;;;;;8.05;87.18;100293.56;5071956;28;20043;-79
2021/10/29 01:07:42;;;;;;;22.77;16.58;;;;;;;8.08;87.23;100281.28;5072424;28;20064;-79
2021/10/29 01:10:10;;;;;;;30.90;23.77;;;;;;;8.05;88.08;100290.97;5071521;28;20040;-79
2021/10/29 01:12:37;;;;;;;27.33;20.73;;;;;;;8.14;87.12;100293.16;5072450;28;20045;-79
2021/10/29 01:15:06;;;;;;;23.65;17.42;;;;;;;8.13;86.89;100292.34;5072042;28;20044;-80
2021/10/29 01:17:33;;;;;;;23.40;17.92;;;;;;;7.96;86.90;100286.13;5072238;28;20048;-80
2021/10/29 01:20:00;;;;;;;22.42;17.77;;;;;;;8.04;86.55;100279.72;5072531;28;20443;-78
2021/10/29 01:22:27;;;;;;;23.02;15.18;;;;;;;8.09;86.53;100285.56;5065989;28;20107;-78
2021/10/29 01:24:54;;;;;;;19.10;15.43;;;;;;;8.08;86.44;100278.69;5053939;28;20049;-77
2021/10/29 01:27:22;;;;;;;20.67;15.13;;;;;;;7.94;87.09;100272.38;5052923;28;20067;-78
2021/10/29 01:29:51;;;;;;;25.60;17.10;;;;;;;7.96;87.59;100280.91;5058305;28;20074;-77
2021/10/29 01:32:20;;;;;;;20.05;14.90;;;;;;;7.94;87.30;100280.16;5052411;28;20075;-77
2021/10/29 01:34:46;;;;;;;24.85;18.52;;;;;;;7.98;87.37;100271.31;5052624;28;20041;-77
2021/10/29 01:37:14;;;;;;;23.35;15.75;;;;;;;8.01;87.45;100263.41;5052491;28;20049;-77
2021/10/29 01:39:42;;;;;;;28.35;19.25;;;;;;;7.91;87.84;100257.75;5052531;28;20044;-77
2021/10/29 01:42:10;;;;;;;29.17;20.58;;;;;;;7.96;87.56;100247.19;5071362;28;20128;-78
2021/10/29 01:44:37;;;;;;;24.13;17.50;;;;;;;7.98;87.33;100245.34;5071962;28;20041;-78
2021/10/29 01:47:04;;;;;;;24.95;17.95;;;;;;;7.93;87.39;100247.28;5071973;28;20134;-77
2021/10/29 01:49:32;;;;;;;25.48;17.77;;;;;;;7.99;87.51;100241.84;5072387;28;20041;-77
2021/10/29 01:51:59;;;;;;;22.35;15.80;;;;;;;7.97;87.24;100248.88;5071887;28;20094;-78
2021/10/29 01:54:26;;;;;;;23.83;15.15;;;;;;;7.90;87.59;100243.06;5071483;28;20139;-77
2021/10/29 01:56:56;;;;;;;19.63;15.15;;;;;;;7.81;87.93;100240.81;5071735;28;20463;-77
2021/10/29 01:59:23;;;;;;;22.15;16.27;;;;;;;7.89;87.89;100241.38;5072214;28;20040;-77
2021/10/29 02:01:50;;;;;;;27.13;15.93;;;;;;;7.97;87.64;100236.72;5072042;28;20041;-77
2021/10/29 02:04:20;;;;;;;22.85;14.23;;;;;;;8.02;87.22;100228.75;5072118;28;20414;-77
2021/10/29 02:06:47;;;;;;;22.55;15.40;;;;;;;7.95;88.01;100227.31;5072018;28;20051;-77
2021/10/29 02:09:14;;;;;;;22.85;16.92;;;;;;;8.04;87.54;100234.72;5071527;28;20483;-77
2021/10/29 02:11:41;;;;;;;22.17;16.15;;;;;;;7.98;87.52;100233.22;5072085;28;20045;-77
2021/10/29 02:14:08;;;;;;;23.83;15.57;;;;;;;8.02;87.55;100236.56;5071574;28;20081;-77
2021/10/29 02:16:36;;;;;;;21.17;15.82;;;;;;;7.93;88.36;100236.91;5070570;28;20044;-77
2021/10/29 02:19:03;;;;;;;23.33;17.13;;;;;;;7.94;87.84;100239.47;5050947;28;20071;-77
2021/10/29 02:21:31;;;;;;;23.92;15.10;;;;;;;7.96;87.57;100242.81;5051856;28;20091;-77
2021/10/29 02:23:58;;;;;;;23.08;16.35;;;;;;;7.95;87.69;100235.94;5051608;28;20116;-77
2021/10/29 02:26:26;;;;;;;23.25;16.33;;;;;;;7.79;88.46;100230.50;5061000;28;20040;-78
2021/10/29 02:28:53;;;;;;;23.10;15.75;;;;;;;7.87;88.36;100225.84;5071660;28;20079;-77
2021/10/29 02:31:24;;;;;;;23.40;17.58;;;;;;;7.76;89.11;100230.63;5071633;28;20072;-79
2021/10/29 02:33:55;;;;;;;21.83;15.07;;;;;;;7.88;88.64;100219.78;5072231;28;20173;-79
2021/10/29 02:36:22;;;;;;;22.08;14.80;;;;;;;7.88;88.07;100222.38;5071965;28;20057;-77
2021/10/29 02:38:54;;;;;;;22.75;16.02;;;;;;;7.82;88.79;100229.53;5071633;28;20080;-79
2021/10/29 02:41:20;;;;;;;22.65;16.13;;;;;;;8.05;87.90;100223.47;5071116;28;20521;-79
2021/10/29 02:43:47;;;;;;;21.48;16.00;;;;;;;8.11;87.18;100220.63;5071694;28;20045;-79
2021/10/29 02:46:14;;;;;;;26.60;16.25;;;;;;;8.18;87.08;100219.44;5057886;28;20114;-77
2021/10/29 02:48:42;;;;;;;24.30;15.93;;;;;;;8.13;86.95;100221.38;5071965;28;20094;-78
2021/10/29 02:51:10;;;;;;;26.73;18.38;;;;;;;8.10;87.07;100214.56;5071089;28;20157;-79
2021/10/29 02:53:37;;;;;;;21.63;15.55;;;;;;;8.06;87.50;100212.16;5061948;28;20040;-79
2021/10/29 02:56:05;;;;;;;22.17;18.13;;;;;;;8.04;87.46;100209.63;5067938;28;20044;-79
2021/10/29 02:58:33;;;;;;;25.02;17.20;;;;;;;8.05;87.69;100205.28;5071923;28;20041;-79
2021/10/29 03:01:00;;;;;;;28.45;17.20;;;;;;;8.00;88.22;100208.06;5071528;28;20556;-78
2021/10/29 03:03:28;;;;;;;31.25;19.35;;;;;;;8.02;88.20;100208.00;5069341;28;20111;-79
2021/10/29 03:05:55;;;;;;;22.80;16.48;;;;;;;8.02;87.90;100210.59;5069661;28;20395;-79
2021/10/29 03:08:22;;;;;;;24.40;16.58;;;;;;;8.00;88.23;100208.06;5054685;28;20863;-79
2021/10/29 03:10:49;;;;;;;24.08;17.05;;;;;;;7.88;88.90;100204.22;5055435;28;20171;-79
2021/10/29 03:13:16;;;;;;;28.92;20.65;;;;;;;7.89;89.17;100202.47;5069832;28;20032;-79
2021/10/29 03:15:46;;;;;;;26.67;19.13;;;;;;;8.01;88.09;100203.72;5075264;28;20048;-78
2021/10/29 03:18:13;;;;;;;23.83;18.92;;;;;;;7.97;88.44;100208.16;5074863;28;20056;-79
2021/10/29 03:20:41;;;;;;;27.92;17.50;;;;;;;8.12;87.58;100206.72;5074860;28;20056;-79
2021/10/29 03:23:07;;;;;;;21.23;16.65;;;;;;;7.98;88.29;100206.41;5074454;28;20042;-79
2021/10/29 03:25:34;;;;;;;30.05;18.45;;;;;;;7.92;88.76;100214.44;5074596;28;20052;-79
2021/10/29 03:28:01;;;;;;;26.52;19.23;;;;;;;7.91;88.68;100205.81;5074839;28;20090;-79
2021/10/29 03:30:28;;;;;;;27.92;20.55;;;;;;;8.07;87.81;100204.31;5064941;28;20103;-79
2021/10/29 03:32:57;;;;;;;26.10;18.25;;;;;;;7.99;87.95;100206.38;5074803;28;20060;-79
2021/10/29 03:35:27;;;;;;;23.42;16.65;;;;;;;7.96;88.21;100201.28;5074073;28;20045;-78
2021/10/29 03:43:13;;;;;;;27.67;18.13;;;;;;;7.85;89.42;100193.94;5074331;28;20037;-79
2021/10/29 03:45:52;;;;;;;22.60;17.35;;;;;;;7.93;89.12;100203.16;5073707;28;20056;-77
2021/10/29 03:48:28;;;;;;;25.05;17.45;;;;;;;8.00;88.76;100199.44;5074452;28;20132;-77
2021/10/29 03:51:18;;;;;;;23.45;17.38;;;;;;;8.03;88.34;100199.28;5063045;28;20049;-77
2021/10/29 03:54:07;;;;;;;26.67;17.08;;;;;;;7.83;89.46;100200.09;5067991;28;20076;-77
2021/10/29 03:59:33;;;;;;;32.10;18.38;;;;;;;7.81;89.41;100194.13;5050980;28;20052;-77
2021/10/29 04:02:01;;;;;;;23.70;17.42;;;;;;;7.77;89.99;100195.13;5073273;28;20048;-76
2021/10/29 04:04:28;;;;;;;30.65;18.77;;;;;;;7.75;89.83;100196.94;5074045;28;20041;-77
2021/10/29 04:06:54;;;;;;;26.42;17.52;;;;;;;7.76;90.38;100193.44;5073569;28;20071;-76
2021/10/29 04:09:21;;;;;;;25.95;16.45;;;;;;;7.85;89.59;100193.94;5072650;28;20037;-78
2021/10/29 04:11:48;;;;;;;22.50;16.50;;;;;;;7.81;89.61;100188.91;5053953;28;20041;-77
2021/10/29 04:14:16;;;;;;;27.25;18.65;;;;;;;7.84;89.47;100192.25;5054023;28;20041;-77
2021/10/29 04:16:43;;;;;;;26.60;17.60;;;;;;;7.78;89.21;100195.09;5065215;28;20375;-77
2021/10/29 04:19:13;;;;;;;27.67;19.42;;;;;;;7.75;89.67;100195.19;5073181;28;20040;-77
2021/10/29 04:21:41;;;;;;;25.00;17.77;;;;;;;7.90;88.99;100195.50;5073944;28;20053;-77
2021/10/29 04:24:08;;;;;;;21.75;16.67;;;;;;;7.98;88.04;100196.88;5073346;28;20036;-77
2021/10/29 04:26:36;;;;;;;24.00;18.80;;;;;;;7.88;88.71;100188.63;5073765;28;20076;-77
2021/10/29 04:29:13;;;;;;;23.90;17.10;;;;;;;7.87;88.87;100193.88;5073173;28;20063;-77
2021/10/29 04:31:50;;;;;;;23.80;18.98;;;;;;;7.82;89.16;100198.38;5056698;28;20090;-78
2021/10/29 04:34:22;;;;;;;25.20;19.30;;;;;;;7.82;89.18;100199.22;5062134;28;20052;-78
2021/10/29 04:36:50;;;;;;;25.55;21.15;;;;;;;7.80;89.93;100195.88;5060349;28;20045;-77
2021/10/29 04:39:17;;;;;;;36.78;20.58;;;;;;;7.79;89.63;100198.53;5066299;28;20045;-78
2021/10/29 04:41:47;;;;;;;29.42;20.35;;;;;;;7.76;89.50;100191.69;5053503;28;20040;-78
2021/10/29 04:44:21;;;;;;;28.30;19.05;;;;;;;7.71;90.28;100191.03;5051740;28;20041;-77
2021/10/29 04:46:48;;;;;;;25.05;17.75;;;;;;;7.70;90.49;100199.72;5063611;28;20044;-76
2021/10/29 04:49:15;;;;;;;26.77;18.42;;;;;;;7.77;90.04;100190.78;5072978;28;20045;-77
2021/10/29 04:51:42;;;;;;;30.23;21.33;;;;;;;7.77;89.98;100193.38;5072994;28;20474;-77
2021/10/29 04:54:09;;;;;;;24.98;18.85;;;;;;;7.75;90.06;100192.59;5075906;28;20114;-77
2021/10/29 04:56:36;;;;;;;23.85;17.65;;;;;;;7.72;90.17;100192.72;5072634;28;20483;-77
2021/10/29 04:59:04;;;;;;;27.67;18.23;;;;;;;7.68;90.68;100185.97;5073284;28;20410;-76
2021/10/29 05:01:31;;;;;;;24.50;16.77;;;;;;;7.66;90.52;100187.75;5059931;28;20116;-78
2021/10/29 05:03:59;;;;;;;28.90;18.85;;;;;;;7.74;90.19;100193.53;5054369;28;20095;-81
2021/10/29 05:06:25;;;;;;;27.45;18.25;;;;;;;7.69;90.16;100192.84;5061718;28;20068;-82
2021/10/29 05:08:52;;;;;;;24.42;18.10;;;;;;;7.63;90.95;100203.47;5073127;28;20492;-86
2021/10/29 05:11:19;;;;;;;28.45;20.60;;;;;;;7.63;91.07;100198.28;5075450;28;20051;-81
2021/10/29 05:13:46;;;;;;;27.70;16.90;;;;;;;7.61;90.99;100202.66;5076393;28;20191;-80
2021/10/29 05:16:12;;;;;;;26.17;18.77;;;;;;;7.62;90.52;100199.19;5081468;28;20075;-85
2021/10/29 05:18:39;;;;;;;29.10;18.17;;;;;;;7.63;90.95;100187.91;5073419;28;20032;-83
2021/10/29 05:21:09;;;;;;;26.58;19.95;;;;;;;7.66;90.52;100186.94;5079079;28;20037;-83
2021/10/29 05:23:36;;;;;;;26.98;18.75;;;;;;;7.75;89.71;100196.94;5069398;28;20071;-81
2021/10/29 05:26:02;;;;;;;21.55;16.15;;;;;;;7.68;89.63;100205.88;5065783;28;20037;-84
2021/10/29 05:28:29;;;;;;;34.58;19.08;;;;;;;7.91;92.26;100197.19;5068087;28;20077;-83
2021/10/29 05:30:56;;;;;;;27.25;17.70;;;;;;;7.89;89.15;100194.66;5061537;28;20095;-84
2021/10/29 05:33:24;;;;;;;27.98;17.73;;;;;;;7.83;89.07;100187.97;5066183;28;20135;-83
2021/10/29 05:35:50;;;;;;;27.48;17.52;;;;;;;7.85;88.28;100188.75;5074202;28;20440;-84
2021/10/29 05:38:18;;;;;;;26.77;17.45;;;;;;;7.80;88.64;100193.28;5060519;28;20041;-84
2021/10/29 05:40:44;;;;;;;23.55;15.80;;;;;;;7.75;89.27;100192.59;5056190;28;20536;-86
2021/10/29 05:43:11;;;;;;;23.80;18.30;;;;;;;7.75;89.24;100197.78;5066163;28;20110;-85
2021/10/29 05:45:38;;;;;;;30.17;19.02;;;;;;;7.69;89.47;100195.44;5069601;28;20549;-87
2021/10/29 05:48:06;;;;;;;23.52;17.60;;;;;;;7.74;89.69;100197.88;5069818;28;20040;-86
2021/10/29 05:50:36;;;;;;;27.90;18.48;;;;;;;7.58;90.18;100205.41;5065359;28;20048;-83
2021/10/29 05:53:06;;;;;;;29.95;17.33;;;;;;;7.68;90.09;100214.53;5058796;28;20068;-86
2021/10/29 05:55:33;;;;;;;22.70;17.27;;;;;;;7.59;90.10;100212.28;5071440;28;20065;-85
2021/10/29 05:57:59;;;;;;;25.55;17.67;;;;;;;7.64;89.96;100205.16;5071704;28;20041;-86
2021/10/29 06:00:29;;;;;;;26.05;16.48;;;;;;;7.68;89.74;100204.13;5072244;28;20047;-84
2021/10/29 06:03:04;;;;;;;29.80;20.38;;;;;;;7.72;89.48;100217.81;5072468;28;20390;-87
2021/10/29 06:05:32;;;;;;;30.40;18.92;;;;;;;7.78;89.33;100202.03;5072168;28;20450;-86
2021/10/29 06:07:59;;;;;;;23.60;17.23;;;;;;;7.78;89.33;100208.06;5071696;28;20536;-85
2021/10/29 06:10:26;;;;;;;25.52;17.02;;;;;;;7.75;88.88;100218.56;5072022;28;20040;-85
2021/10/29 06:12:55;;;;;;;23.70;18.60;;;;;;;7.84;88.58;100202.63;5069865;28;20554;-84
2021/10/29 06:15:22;;;;;;;25.63;17.77;;;;;;;7.94;87.70;100215.25;5072011;28;20421;-87
2021/10/29 06:17:49;;;;;;;27.20;17.88;;;;;;;8.08;87.37;100210.34;5071669;28;20394;-87
2021/10/29 06:20:17;;;;;;;25.25;17.98;;;;;;;8.00;87.81;100215.00;5071968;28;20044;-87
2021/10/29 06:22:48;;;;;;;20.33;15.98;;;;;;;8.07;87.24;100217.28;5071261;28;20033;-85
2021/10/29 06:25:18;;;;;;;20.02;15.40;;;;;;;8.23;86.64;100219.25;5058478;28;20102;-86
2021/10/29 06:30:40;;;;;;;27.63;17.13;;;;;;;8.36;86.18;100220.47;5058520;28;20052;-86
2021/10/29 06:33:08;;;;;;;22.40;16.48;;;;;;;8.43;85.79;100215.91;5065488;28;20033;-88
2021/10/29 06:35:35;;;;;;;28.58;16.77;;;;;;;8.48;85.68;100224.34;5070522;28;20037;-87
2021/10/29 06:38:04;;;;;;;26.55;16.65;;;;;;;8.61;85.07;100231.53;5067620;28;20097;-86
2021/10/29 06:40:37;;;;;;;24.48;17.15;;;;;;;8.65;84.69;100233.09;5055088;28;20041;-86
2021/10/29 06:43:08;;;;;;;27.35;18.60;;;;;;;8.72;85.33;100233.69;5055672;28;20053;-86
2021/10/29 07:02:28;;;;;;;31.92;17.02;;;;;;;9.71;88.95;100250.09;5063095;28;20450;-86
2021/10/29 07:40:17;;;;;;;40.60;23.80;;;;;;;10.26;81.59;100271.84;5062061;28;20075;-87
2021/10/29 07:45:17;;;;;;;33.03;22.55;;;;;;;9.57;84.10;100267.22;5073963;28;20044;-87
2021/10/29 07:47:45;;;;;;;43.17;23.17;;;;;;;9.98;82.05;100267.94;5059924;28;20037;-87
2021/10/29 07:50:14;;;;;;;33.72;23.02;;;;;;;9.85;82.74;100272.84;5053620;28;20094;-86
2021/10/29 07:52:43;;;;;;;37.53;23.33;;;;;;;9.78;82.00;100271.47;5058400;28;20044;-86
2021/10/29 07:55:11;;;;;;;33.38;21.90;;;;;;;9.97;80.77;100274.91;5074159;28;20052;-86
2021/10/29 07:57:39;;;;;;;31.33;21.63;;;;;;;9.94;80.94;100289.81;5074682;28;20529;-86
2021/10/29 08:00:08;;;;;;;32.35;23.42;;;;;;;9.78;81.11;100279.28;5060695;28;20045;-86
2021/10/29 08:02:35;;;;;;;34.10;23.98;;;;;;;9.78;81.17;100289.69;5062548;28;20036;-86
2021/10/29 08:05:03;;;;;;;38.03;23.50;;;;;;;10.00;81.06;100278.28;5058391;28;20047;-86
2021/10/29 08:07:31;;;;;;;40.00;23.83;;;;;;;9.81;80.79;100271.34;5054468;28;20122;-90
2021/10/29 08:10:04;;;;;;;41.30;24.08;;;;;;;10.18;79.73;100273.03;5076020;28;20100;-88
2021/10/29 08:12:33;;;;;;;34.22;24.67;;;;;;;10.44;78.04;100281.41;5078617;28;20576;-89
2021/10/29 08:15:03;;;;;;;45.75;26.08;;;;;;;10.65;77.19;100284.69;5064097;28;20052;-87
2021/10/29 08:17:33;;;;;;;39.83;24.65;;;;;;;10.27;78.73;100281.34;5071898;28;20040;-86
2021/10/29 08:20:08;;;;;;;37.78;26.08;;;;;;;10.54;76.48;100284.38;5063036;28;20111;-88
2021/10/29 08:22:36;;;;;;;39.03;25.70;;;;;;;10.49;76.68;100282.88;5066392;28;20037;-89
2021/10/29 08:25:06;;;;;;;39.95;24.92;;;;;;;10.40;75.27;100285.91;5073903;28;20066;-88
2021/10/29 08:27:34;;;;;;;34.75;23.90;;;;;;;10.59;75.52;100288.44;5067682;28;20086;-88
2021/10/29 08:30:08;;;;;;;39.50;26.90;;;;;;;10.82;73.87;100292.53;5073044;28;20128;-88
2021/10/29 08:32:38;;;;;;;41.22;26.63;;;;;;;10.90;73.31;100285.16;5073990;28;20106;-90
2021/10/29 08:35:06;;;;;;;46.53;33.28;;;;;;;10.84;74.81;100282.03;5067278;28;20083;-90
2021/10/29 08:37:34;;;;;;;44.40;33.35;;;;;;;10.94;74.57;100284.09;5071270;28;20040;-86
2021/10/29 08:40:05;;;;;;;48.97;36.80;;;;;;;10.92;74.29;100283.31;5071699;28;20131;-85
2021/10/29 08:42:32;;;;;;;51.08;34.47;;;;;;;11.05;72.60;100280.09;5068896;28;20048;-86
2021/10/29 08:45:04;;;;;;;54.00;32.97;;;;;;;11.11;72.92;100271.94;5067784;28;20095;-87
2021/10/29 08:47:32;;;;;;;41.95;30.02;;;;;;;11.34;71.89;100287.22;5073121;28;20048;-88
2021/10/29 08:50:00;;;;;;;51.15;28.10;;;;;;;10.99;72.98;100276.88;5070224;28;20082;-86
2021/10/29 08:52:27;;;;;;;40.28;26.40;;;;;;;10.92;74.14;100275.50;5069744;28;20048;-86
2021/10/29 08:54:54;;;;;;;36.63;26.85;;;;;;;11.33;73.80;100284.72;5071943;28;20484;-85
2021/10/29 08:57:22;;;;;;;35.42;24.83;;;;;;;11.37;72.27;100281.84;5071256;28;20036;-88
2021/10/29 08:59:52;;;;;;;36.17;25.08;;;;;;;11.37;72.12;100275.81;5061921;28;20037;-90
2021/10/29 09:02:29;;;;;;;32.70;25.00;;;;;;;11.24;72.34;100281.66;5053463;28;20099;-89
2021/10/29 09:33:02;;;;;;;47.80;27.13;;;;;;;11.47;70.64;100275.22;5065842;28;20550;-91
2021/10/29 09:35:36;;;;;;;44.15;25.08;;;;;;;11.87;69.40;100269.66;5064296;28;20055;-91
2021/10/29 09:38:12;;;;;;;35.40;23.80;;;;;;;11.86;69.59;100266.19;5073121;28;20049;-92
2021/10/29 09:41:03;;;;;;;37.42;26.83;;;;;;;11.68;69.90;100269.78;5067724;28;20044;-93
2021/10/29 09:43:56;;;;;;;42.25;25.77;;;;;;;12.11;68.37;100259.63;5056599;28;20041;-92
2021/10/29 09:46:56;;;;;;;33.90;24.65;;;;;;;11.95;68.82;100263.09;5053889;28;20403;-93
2021/10/29 09:49:30;;;;;;;35.50;22.02;;;;;;;12.16;67.70;100254.97;5030294;28;20041;-90
2021/10/29 09:57:23;;;;;;;35.13;23.07;;;;;;;12.48;66.49;100261.00;5072744;28;20497;-86
2021/10/29 09:59:55;;;;;;;41.78;25.67;;;;;;;12.37;66.84;100263.38;5061845;28;20037;-88
2021/10/29 10:02:24;;;;;;;33.35;23.23;;;;;;;12.31;67.60;100264.56;5052162;28;20051;-88
2021/10/29 10:04:53;;;;;;;45.45;25.10;;;;;;;12.66;66.54;100270.38;5067577;28;20037;-87
2021/10/29 10:07:22;;;;;;;35.60;25.27;;;;;;;12.57;67.16;100266.53;5072459;28;20059;-89
2021/10/29 10:09:54;;;;;;;36.90;25.70;;;;;;;12.50;67.09;100266.97;5072486;28;20111;-91
2021/10/29 10:12:22;;;;;;;43.33;27.15;;;;;;;12.58;67.91;100268.22;5072473;28;20048;-92
2021/10/29 10:14:56;;;;;;;45.70;27.02;;;;;;;12.61;67.96;100266.34;5054717;28;20049;-91
2021/10/29 10:17:24;;;;;;;34.50;25.35;;;;;;;12.52;67.88;100271.19;5063662;28;20098;-90
2021/10/29 10:19:55;;;;;;;38.78;26.05;;;;;;;12.52;67.34;100265.13;5062756;28;20037;-95
2021/10/29 10:22:26;;;;;;;37.55;25.60;;;;;;;12.48;67.93;100259.22;5078279;28;20048;-93
2021/10/29 10:25:03;;;;;;;39.42;24.73;;;;;;;12.55;68.07;100268.38;5071333;28;20128;-90
2021/10/29 10:27:55;;;;;;;35.90;25.35;;;;;;;12.51;67.72;100264.25;5068529;28;20036;-92
2021/10/29 10:40:14;;;;;;;35.22;25.65;;;;;;;12.93;66.49;100259.22;5070106;28;20044;-90
2021/10/29 10:47:07;;;;;;;39.83;27.98;;;;;;;13.01;65.64;100239.53;5073232;28;20098;-88
2021/10/29 10:49:39;;;;;;;39.47;25.27;;;;;;;13.16;65.58;100242.16;5073165;28;20109;-90
2021/10/29 10:52:15;;;;;;;33.13;25.20;;;;;;;13.09;65.72;100226.78;5066505;28;20040;-91
2021/10/29 10:54:49;;;;;;;42.08;26.05;;;;;;;13.23;65.32;100230.41;5054652;28;20403;-92
2021/10/29 10:58:05;;;;;;;37.22;25.48;;;;;;;13.53;64.67;100232.88;5055000;28;20045;-90
2021/10/29 11:01:01;;;;;;;43.22;27.77;;;;;;;13.59;64.53;100225.50;5069406;28;20391;-87
2021/10/29 11:06:13;;;;;;;48.42;32.30;;;;;;;13.62;64.27;100224.47;5070589;28;20040;-87
2021/10/29 11:11:26;;;;;;;41.33;30.17;;;;;;;13.71;64.48;100212.56;5071236;28;20036;-82
2021/10/29 11:13:57;;;;;;;42.78;29.85;;;;;;;13.73;63.44;100211.53;5072547;28;20036;-88
2021/10/29 11:16:35;;;;;;;41.30;28.27;;;;;;;13.65;63.87;100211.19;5072257;28;20045;-89
2021/10/29 11:19:05;;;;;;;41.08;29.60;;;;;;;13.83;63.43;100206.53;5070274;28;20044;-86
2021/10/29 11:21:38;;;;;;;44.65;30.52;;;;;;;14.05;62.95;100206.00;5066765;28;20114;-84
2021/10/29 11:24:09;;;;;;;42.15;26.95;;;;;;;14.14;61.90;100201.00;5068403;28;20433;-83
2021/10/29 11:26:40;;;;;;;43.67;31.38;;;;;;;13.80;62.53;100188.41;5070588;28;20055;-83
2021/10/29 11:29:10;;;;;;;44.15;27.50;;;;;;;13.79;62.88;100184.91;5071826;28;20048;-83
2021/10/29 11:31:42;;;;;;;44.03;27.25;;;;;;;13.76;62.21;100186.91;5073225;28;20495;-84
2021/10/29 11:34:13;;;;;;;42.03;28.20;;;;;;;14.09;62.73;100189.97;5072748;28;20052;-84
2021/10/29 11:36:50;;;;;;;44.00;30.35;;;;;;;14.09;62.27;100179.47;5073202;28;20055;-83
2021/10/29 11:39:23;;;;;;;46.65;30.63;;;;;;;14.43;62.06;100169.38;5072595;28;20431;-84
2021/10/29 11:41:51;;;;;;;45.20;31.48;;;;;;;14.37;61.92;100168.00;5071336;28;20037;-84
2021/10/29 11:44:21;;;;;;;39.92;30.92;;;;;;;14.05;62.68;100164.06;5069612;28;20045;-82
2021/10/29 11:46:49;;;;;;;42.53;27.70;;;;;;;14.39;61.36;100168.75;5071720;28;20098;-83
2021/10/29 11:49:21;;;;;;;41.45;29.77;;;;;;;14.19;62.29;100166.63;5071012;28;20037;-82
2021/10/29 11:51:48;;;;;;;49.92;31.05;;;;;;;14.16;62.09;100158.94;5072917;28;20051;-81
2021/10/29 11:54:31;;;;;;;41.10;30.85;;;;;;;13.91;62.38;100164.97;5073742;28;20040;-82
2021/10/29 11:57:25;;;;;;;40.90;28.63;;;;;;;13.91;62.07;100151.88;5068286;28;20047;-81
2021/10/29 12:05:55;;;;;;;44.80;30.90;;;;;;;14.51;61.07;100146.13;5061625;28;20046;-80
2021/10/29 12:08:26;;;;;;;47.67;29.25;;;;;;;14.52;60.68;100141.72;5064733;28;20095;-80
2021/10/29 12:11:03;;;;;;;54.33;31.23;;;;;;;14.33;61.36;100139.50;5073101;28;20094;-81
2021/10/29 12:13:32;;;;;;;46.35;29.05;;;;;;;14.27;61.14;100126.75;5076308;28;20095;-81
2021/10/29 12:15:59;;;;;;;39.88;30.77;;;;;;;14.26;60.58;100125.09;5075243;28;20040;-82
2021/10/29 12:18:33;;;;;;;37.55;26.95;;;;;;;14.27;60.61;100121.53;5077105;28;20071;-79
2021/10/29 12:21:00;;;;;;;50.47;33.20;;;;;;;14.40;60.63;100119.78;5073801;28;20041;-84
2021/10/29 12:23:29;;;;;;;50.40;31.25;;;;;;;14.32;61.57;100115.03;5073007;28;20123;-81
2021/10/29 12:26:02;;;;;;;45.40;30.77;;;;;;;14.15;62.17;100113.53;5077094;28;20090;-80
2021/10/29 12:28:33;;;;;;;46.45;33.88;;;;;;;14.10;62.37;100118.25;5074373;28;20051;-81
2021/10/29 12:31:12;;;;;;;48.58;32.05;;;;;;;14.06;62.44;100116.78;5071719;28;20036;-82
2021/10/29 12:53:58;;;;;;;50.45;32.70;;;;;;;14.52;60.57;100092.72;5074396;28;20067;-79
2021/10/29 13:01:59;;;;;;;48.38;32.65;;;;;;;14.52;60.60;100081.41;5074723;28;20098;-77
2021/10/29 13:04:40;;;;;;;53.00;33.58;;;;;;;14.62;60.16;100085.91;5075613;28;20538;-79
2021/10/29 13:07:08;;;;;;;44.35;32.53;;;;;;;14.74;59.81;100083.38;5076831;28;20051;-80
2021/10/29 13:09:40;;;;;;;53.45;33.70;;;;;;;14.52;59.88;100074.38;5081694;28;20586;-79
2021/10/29 13:14:38;;;;;;;43.38;29.65;;;;;;;14.37;60.37;100070.13;5071191;28;20478;-80
2021/10/29 13:17:22;;;;;;;46.75;32.33;;;;;;;14.28;60.06;100068.16;5075203;28;20043;-80
2021/10/29 14:35:16;;;;;;;50.55;31.20;;;;;;;14.27;59.82;100037.63;5070187;28;20045;-79
2021/10/29 14:45:54;;;;;;;46.08;29.17;;;;;;;14.17;60.75;100032.19;5070465;28;20072;-78
2021/10/29 15:28:58;;;;;;;46.03;30.08;;;;;;;13.70;61.75;100033.59;5073382;28;20040;-81
2021/10/29 15:45:05;;;;;;;44.60;29.90;;;;;;;12.98;70.13;100035.59;5071832;28;20417;-82
2021/10/29 15:50:17;;;;;;;46.65;29.13;;;;;;;12.71;71.22;100038.16;5066446;28;20064;-83
2021/10/29 15:52:50;;;;;;;52.13;32.83;;;;;;;12.67;70.93;100031.44;5071185;28;20068;-84
2021/10/29 15:55:30;;;;;;;49.78;28.88;;;;;;;12.56;71.54;100037.34;5065060;28;20087;-83
2021/10/29 16:01:09;;;;;;;40.70;29.52;;;;;;;12.36;72.14;100042.97;5065594;28;20445;-80
2021/10/29 16:17:25;;;;;;;42.20;29.42;;;;;;;11.95;73.24;100054.09;5054053;28;20083;-83
2021/10/29 16:19:53;;;;;;;44.92;31.73;;;;;;;11.87;74.02;100047.63;5055049;28;20048;-82
2021/10/29 16:22:25;;;;;;;45.47;30.52;;;;;;;11.88;73.48;100052.78;5066572;28;20412;-84
2021/10/29 16:25:36;;;;;;;42.00;30.38;;;;;;;11.94;72.92;100057.66;5055427;28;20498;-84
2021/10/29 16:27:52;;;;;;;43.28;30.55;;;;;;;12.01;72.46;100058.97;5067443;28;20482;-82
2021/10/29 16:30:22;;;;;;;49.47;30.27;;;;;;;12.02;72.36;100052.81;5071971;28;20047;-81
2021/10/29 16:35:17;;;;;;;47.70;32.42;;;;;;;12.06;71.88;100059.53;5054075;28;20037;-83
2021/10/29 16:37:44;;;;;;;48.28;31.52;;;;;;;12.14;71.88;100069.50;5073121;28;20040;-83
2021/10/29 16:40:12;;;;;;;46.55;30.52;;;;;;;12.09;71.63;100070.72;5071870;28;20052;-83